Time;durP1;ratioP1;P1;durP2;ratioP2;P2;SDS_P1;SDS_P2;PMS_P1;PMS_P2;Temp;Humidity;BMP_temperature;BMP_pressure;BME280_temperature;BME280_humidity;BME280_pressure;Samples;Min_cycle;Max_cycle;Signal;HPM_P1;HPM_P2
2023/01/08 00:02:24;;;;;;;15.88;10.25;;;3.20;99.90;;;;;;5070952;28;20033;-79
2023/01/08 00:04:50;;;;;;;15.18;10.35;;;3.20;99.90;;;;;;5074448;28;20536;-79
2023/01/08 00:07:16;;;;;;;18.00;9.90;;;3.20;99.90;;;;;;5075318;28;20024;-79
2023/01/08 00:09:42;;;;;;;13.23;9.48;;;3.10;99.90;;;;;;5061985;28;20093;-79
2023/01/08 00:12:08;;;;;;;12.93;9.07;;;3.00;99.90;;;;;;5054172;28;20159;-79
2023/01/08 00:14:34;;;;;;;13.80;9.23;;;3.00;99.90;;;;;;5056527;28;20029;-80
2023/01/08 00:17:01;;;;;;;12.65;9.30;;;2.90;99.90;;;;;;5056634;28;20028;-80
2023/01/08 00:19:28;;;;;;;17.60;10.75;;;2.80;99.90;;;;;;5038613;28;20036;-78
2023/01/08 00:21:54;;;;;;;16.80;10.50;;;2.80;99.90;;;;;;5073246;28;20040;-79
2023/01/08 00:24:20;;;;;;;19.52;12.38;;;2.80;99.90;;;;;;5056547;28;20063;-78
2023/01/08 00:26:46;;;;;;;15.88;10.73;;;2.80;99.90;;;;;;5052957;28;20040;-79
2023/01/08 00:29:12;;;;;;;15.57;10.15;;;2.90;99.90;;;;;;5040686;28;20096;-79
2023/01/08 00:31:38;;;;;;;15.13;10.48;;;2.90;99.90;;;;;;5053220;28;20097;-79
2023/01/08 00:34:04;;;;;;;17.35;11.23;;;2.80;99.90;;;;;;5061764;28;20036;-79
2023/01/08 00:36:30;;;;;;;16.77;10.55;;;2.90;99.90;;;;;;5072495;28;20619;-79
2023/01/08 00:38:58;;;;;;;17.02;10.68;;;2.90;99.90;;;;;;5073665;28;20119;-79
2023/01/08 00:41:24;;;;;;;15.80;10.90;;;2.90;99.90;;;;;;5070235;28;20392;-79
2023/01/08 00:43:49;;;;;;;16.48;10.13;;;2.90;99.90;;;;;;5053673;28;20032;-79
2023/01/08 00:46:17;;;;;;;15.27;10.07;;;2.90;99.90;;;;;;5069582;28;20097;-78
2023/01/08 00:48:43;;;;;;;16.80;10.52;;;2.90;99.90;;;;;;5055453;28;20561;-79
2023/01/08 00:51:09;;;;;;;18.50;12.77;;;2.90;99.90;;;;;;5054922;28;20120;-79
2023/01/08 00:53:36;;;;;;;25.38;14.13;;;3.00;99.90;;;;;;5068129;28;20100;-79
2023/01/08 00:56:08;;;;;;;20.23;13.15;;;3.10;99.90;;;;;;5054917;28;20044;-79
2023/01/08 00:58:34;;;;;;;21.70;12.50;;;3.10;99.90;;;;;;5048557;28;20024;-79
2023/01/08 01:01:00;;;;;;;20.77;13.23;;;3.20;99.90;;;;;;5055586;28;20742;-79
2023/01/08 01:03:26;;;;;;;20.83;13.18;;;3.20;99.90;;;;;;5035470;28;20452;-79
2023/01/08 01:06:05;;;;;;;18.25;11.63;;;3.20;99.90;;;;;;5071601;28;20442;-80
2023/01/08 01:08:32;;;;;;;18.70;12.77;;;3.10;99.90;;;;;;5065356;28;20040;-80
2023/01/08 01:10:58;;;;;;;19.33;12.57;;;3.10;99.90;;;;;;5071670;28;20120;-79
2023/01/08 01:13:24;;;;;;;21.73;13.38;;;3.10;99.90;;;;;;5066156;28;20083;-79
2023/01/08 01:16:00;;;;;;;20.48;13.13;;;3.10;99.90;;;;;;5071034;28;20658;-79
2023/01/08 01:18:26;;;;;;;21.60;13.73;;;3.20;99.90;;;;;;5054328;28;20052;-79
2023/01/08 01:20:52;;;;;;;24.75;15.10;;;3.20;99.90;;;;;;5053296;28;20052;-78
2023/01/08 01:23:18;;;;;;;21.83;13.93;;;3.30;99.90;;;;;;5065421;28;20611;-80
2023/01/08 01:25:44;;;;;;;22.77;15.70;;;3.20;99.90;;;;;;5068519;28;20506;-79
2023/01/08 01:28:10;;;;;;;23.30;15.20;;;3.20;99.90;;;;;;5069817;28;20039;-79
2023/01/08 01:30:36;;;;;;;25.98;15.30;;;3.30;99.90;;;;;;5036121;28;20055;-79
2023/01/08 01:33:02;;;;;;;24.38;14.65;;;3.30;99.90;;;;;;5050495;28;20029;-80
2023/01/08 01:35:28;;;;;;;24.83;13.75;;;3.30;99.90;;;;;;5047990;28;20128;-79
2023/01/08 01:37:54;;;;;;;23.42;14.30;;;3.20;99.90;;;;;;5064930;28;20062;-80
2023/01/08 01:40:19;;;;;;;21.60;12.88;;;3.20;99.90;;;;;;5071211;28;20043;-79
2023/01/08 01:42:46;;;;;;;22.20;14.35;;;3.20;99.90;;;;;;5068996;28;20021;-79
2023/01/08 01:45:17;;;;;;;23.52;14.35;;;3.20;99.90;;;;;;5056813;28;20068;-78
2023/01/08 01:47:46;;;;;;;21.58;12.75;;;3.20;99.90;;;;;;5068761;28;20049;-79
2023/01/08 01:50:25;;;;;;;22.08;13.15;;;3.20;99.90;;;;;;5054584;28;20032;-80
2023/01/08 01:53:18;;;;;;;23.38;14.10;;;3.20;99.90;;;;;;5046451;28;20123;-78
2023/01/08 01:55:45;;;;;;;24.35;14.05;;;3.20;99.90;;;;;;5072148;28;20040;-79
2023/01/08 01:58:23;;;;;;;24.08;14.13;;;3.10;99.90;;;;;;5051419;28;20040;-79
2023/01/08 02:00:49;;;;;;;24.88;15.93;;;3.20;99.90;;;;;;5069884;28;20040;-79
2023/01/08 02:03:20;;;;;;;23.42;14.50;;;3.20;99.90;;;;;;5064467;28;20054;-79
2023/01/08 02:05:59;;;;;;;25.73;15.38;;;3.20;99.90;;;;;;5063916;28;20013;-79
2023/01/08 02:08:37;;;;;;;26.25;15.13;;;3.20;99.90;;;;;;5064373;28;20176;-79
2023/01/08 02:11:10;;;;;;;22.38;13.63;;;3.20;99.90;;;;;;5071840;28;20028;-79
2023/01/08 02:13:39;;;;;;;23.90;15.05;;;3.20;99.90;;;;;;5036395;28;20029;-79
2023/01/08 02:16:20;;;;;;;24.45;14.63;;;3.30;99.90;;;;;;5054132;28;20047;-79
2023/01/08 02:18:52;;;;;;;26.55;16.05;;;3.30;99.90;;;;;;5072462;28;20031;-79
2023/01/08 02:22:02;;;;;;;27.65;15.85;;;3.30;99.90;;;;;;5067325;28;20052;-79
2023/01/08 02:24:38;;;;;;;23.92;15.23;;;3.30;99.90;;;;;;5031974;28;20040;-79
2023/01/08 02:27:06;;;;;;;23.52;14.77;;;3.30;99.90;;;;;;5033630;28;20440;-79
2023/01/08 02:29:33;;;;;;;23.92;14.93;;;3.20;99.90;;;;;;5053456;28;20480;-79
2023/01/08 02:31:59;;;;;;;22.85;13.73;;;3.20;99.90;;;;;;5072019;28;20025;-79
2023/01/08 02:34:26;;;;;;;26.42;16.33;;;3.30;99.90;;;;;;5050850;28;20033;-79
2023/01/08 02:36:54;;;;;;;25.80;15.38;;;3.30;99.90;;;;;;5072363;28;20032;-79
2023/01/08 02:39:43;;;;;;;23.80;14.60;;;3.30;99.90;;;;;;5072448;28;20032;-79
2023/01/08 02:42:39;;;;;;;25.73;15.40;;;3.30;99.90;;;;;;5041414;28;20055;-79
2023/01/08 02:45:39;;;;;;;25.77;16.58;;;3.30;99.90;;;;;;5070075;28;20032;-79
2023/01/08 02:48:11;;;;;;;23.80;14.40;;;3.30;99.90;;;;;;5061698;28;20033;-79
2023/01/08 02:50:48;;;;;;;26.52;14.57;;;3.30;99.90;;;;;;5067224;28;20035;-79
2023/01/08 02:53:21;;;;;;;23.10;14.85;;;3.30;99.90;;;;;;5053016;28;20503;-79
2023/01/08 02:55:55;;;;;;;23.63;14.57;;;3.40;99.90;;;;;;5052266;28;20024;-79
2023/01/08 02:58:24;;;;;;;24.75;14.30;;;3.40;99.90;;;;;;5046458;28;20028;-80
2023/01/08 03:00:52;;;;;;;21.65;13.95;;;3.30;99.90;;;;;;5037426;28;20051;-79
2023/01/08 03:03:21;;;;;;;22.17;13.93;;;3.40;99.90;;;;;;5066250;28;20099;-79
2023/01/08 03:05:56;;;;;;;21.63;12.95;;;3.40;99.90;;;;;;5063521;28;20031;-79
2023/01/08 03:08:23;;;;;;;23.20;13.82;;;3.30;99.90;;;;;;5067823;28;20029;-80
2023/01/08 03:11:17;;;;;;;20.25;14.05;;;3.40;99.90;;;;;;5053136;28;20731;-80
2023/01/08 03:14:08;;;;;;;21.98;14.25;;;3.40;99.90;;;;;;5060706;28;20098;-79
2023/01/08 03:16:34;;;;;;;26.60;15.30;;;3.50;99.90;;;;;;5058271;28;20025;-80
2023/01/08 03:19:08;;;;;;;24.90;15.68;;;3.50;99.90;;;;;;5053257;28;20401;-80
2023/01/08 03:21:36;;;;;;;24.45;15.50;;;3.50;99.90;;;;;;5052414;28;20063;-78
2023/01/08 03:24:03;;;;;;;24.45;15.73;;;3.50;99.90;;;;;;5069146;28;20013;-78
2023/01/08 03:26:31;;;;;;;25.77;15.60;;;3.50;99.90;;;;;;5065460;28;20051;-78
2023/01/08 03:29:00;;;;;;;26.45;15.73;;;3.50;99.90;;;;;;5049514;28;20524;-79
2023/01/08 03:31:28;;;;;;;22.75;14.10;;;3.50;99.90;;;;;;5058493;28;20648;-78
2023/01/08 03:33:55;;;;;;;24.60;15.10;;;3.50;99.90;;;;;;5055319;28;20037;-80
2023/01/08 03:36:26;;;;;;;26.42;15.75;;;3.50;99.90;;;;;;5075819;28;20048;-79
2023/01/08 03:39:14;;;;;;;26.27;15.40;;;3.50;99.90;;;;;;5041061;28;20041;-80
2023/01/08 03:41:41;;;;;;;23.25;14.60;;;3.50;99.90;;;;;;5073902;28;20025;-78
2023/01/08 03:44:07;;;;;;;26.70;15.07;;;3.50;99.90;;;;;;5048623;28;20033;-79
2023/01/08 03:46:39;;;;;;;26.70;15.82;;;3.60;99.90;;;;;;5039693;28;20119;-78
2023/01/08 03:49:06;;;;;;;25.77;15.02;;;3.60;99.90;;;;;;5071515;28;20021;-78
2023/01/08 03:51:40;;;;;;;23.13;13.95;;;3.60;99.90;;;;;;5074179;28;20039;-79
2023/01/08 03:54:11;;;;;;;22.55;13.80;;;3.50;99.90;;;;;;5067960;28;20036;-78
2023/01/08 03:56:37;;;;;;;23.05;14.13;;;3.60;99.90;;;;;;5056010;28;20378;-79
2023/01/08 03:59:03;;;;;;;23.23;14.20;;;3.60;99.90;;;;;;5057590;28;20032;-80
2023/01/08 04:01:29;;;;;;;23.23;14.02;;;3.50;99.90;;;;;;5057407;28;20039;-78
2023/01/08 04:03:55;;;;;;;25.38;15.38;;;3.50;99.90;;;;;;5072171;28;20021;-79
2023/01/08 04:06:20;;;;;;;27.20;15.63;;;3.50;99.90;;;;;;5074266;28;20037;-78
2023/01/08 04:08:47;;;;;;;27.60;15.80;;;3.50;99.90;;;;;;5048008;28;20020;-79
2023/01/08 04:11:13;;;;;;;27.13;16.23;;;3.50;99.90;;;;;;5058578;28;20401;-79
2023/01/08 04:13:39;;;;;;;27.25;15.82;;;3.60;99.90;;;;;;5036231;28;20024;-78
2023/01/08 04:16:06;;;;;;;26.80;15.73;;;3.60;99.90;;;;;;5074862;28;20037;-79
2023/01/08 04:18:33;;;;;;;25.42;15.82;;;3.60;99.90;;;;;;5058690;28;20039;-79
2023/01/08 04:20:59;;;;;;;24.27;15.13;;;3.60;99.90;;;;;;5056113;28;20038;-79
2023/01/08 04:23:25;;;;;;;25.50;15.38;;;3.60;99.90;;;;;;5056451;28;20028;-80
2023/01/08 04:25:51;;;;;;;27.65;15.35;;;3.60;99.90;;;;;;5075741;28;20041;-78
2023/01/08 04:28:18;;;;;;;26.60;15.98;;;3.70;99.90;;;;;;5025068;28;20033;-79
2023/01/08 04:30:44;;;;;;;27.85;15.73;;;3.60;99.90;;;;;;5055450;28;20039;-79
2023/01/08 04:33:10;;;;;;;24.95;15.57;;;3.60;99.90;;;;;;5055326;28;20481;-79
2023/01/08 04:35:37;;;;;;;25.05;15.07;;;3.60;99.90;;;;;;5051887;28;20040;-79
2023/01/08 04:38:03;;;;;;;24.83;15.50;;;3.70;99.90;;;;;;5075272;28;20051;-79
2023/01/08 04:40:31;;;;;;;23.40;15.05;;;3.70;99.90;;;;;;5058623;28;20033;-79
2023/01/08 04:42:57;;;;;;;25.65;15.32;;;3.70;99.90;;;;;;5035568;28;20044;-81
2023/01/08 04:45:24;;;;;;;24.65;15.32;;;3.70;99.90;;;;;;5051941;28;20119;-80
2023/01/08 04:47:56;;;;;;;25.38;14.43;;;3.70;99.90;;;;;;5075163;28;20483;-78
2023/01/08 04:50:23;;;;;;;25.60;15.13;;;3.70;99.90;;;;;;5056149;28;20067;-80
2023/01/08 04:52:49;;;;;;;24.23;14.35;;;3.70;99.90;;;;;;5050853;28;20088;-79
2023/01/08 04:55:15;;;;;;;23.73;14.90;;;3.70;99.90;;;;;;5055650;28;20113;-80
2023/01/08 04:57:41;;;;;;;25.38;14.80;;;3.70;99.90;;;;;;5073465;28;20025;-79
2023/01/08 05:00:08;;;;;;;22.90;14.25;;;3.60;99.90;;;;;;5031799;28;20139;-78
2023/01/08 05:02:34;;;;;;;23.92;14.27;;;3.60;99.90;;;;;;5068278;28;20477;-79
2023/01/08 05:05:00;;;;;;;23.23;14.82;;;3.60;99.90;;;;;;5070966;28;20041;-80
2023/01/08 05:07:26;;;;;;;24.85;14.70;;;3.50;99.90;;;;;;5044069;28;20037;-79
2023/01/08 05:09:52;;;;;;;23.67;14.30;;;3.50;99.90;;;;;;5054709;28;20043;-80
2023/01/08 05:12:18;;;;;;;23.73;14.30;;;3.50;99.90;;;;;;5059044;28;20058;-79
2023/01/08 05:14:44;;;;;;;25.85;15.35;;;3.50;99.90;;;;;;5052974;28;20032;-77
2023/01/08 05:17:10;;;;;;;25.65;14.57;;;3.50;99.90;;;;;;5042039;28;20703;-79
2023/01/08 05:19:36;;;;;;;24.42;14.77;;;3.40;99.90;;;;;;5055927;28;20024;-79
2023/01/08 05:22:02;;;;;;;24.17;14.52;;;3.50;99.90;;;;;;5055775;28;20035;-79
2023/01/08 05:24:28;;;;;;;25.65;15.32;;;3.40;99.90;;;;;;5068971;28;20032;-78
2023/01/08 05:26:54;;;;;;;23.13;13.63;;;3.50;99.90;;;;;;5073188;28;20039;-79
2023/01/08 05:29:20;;;;;;;24.05;14.30;;;3.40;99.90;;;;;;5054681;28;20127;-78
2023/01/08 05:31:47;;;;;;;23.90;15.15;;;3.40;99.90;;;;;;5060286;28;20028;-79
2023/01/08 05:34:13;;;;;;;22.15;13.88;;;3.30;99.90;;;;;;5058518;28;20043;-79
2023/01/08 05:36:39;;;;;;;25.63;15.32;;;3.30;99.90;;;;;;5055825;28;20024;-79
2023/01/08 05:39:05;;;;;;;27.42;15.73;;;3.30;99.90;;;;;;5055995;28;20033;-79
2023/01/08 05:41:31;;;;;;;26.52;15.30;;;3.30;99.90;;;;;;5073508;28;20021;-78
2023/01/08 05:43:57;;;;;;;26.52;14.90;;;3.30;99.90;;;;;;5070142;28;20028;-80
2023/01/08 05:46:23;;;;;;;27.38;16.20;;;3.30;99.90;;;;;;5073226;28;20064;-78
2023/01/08 05:48:49;;;;;;;26.88;14.60;;;3.20;99.90;;;;;;5061556;28;20615;-79
2023/01/08 05:51:15;;;;;;;25.90;15.75;;;3.30;99.90;;;;;;5055653;28;20036;-78
2023/01/08 05:53:41;;;;;;;26.77;14.57;;;3.30;99.90;;;;;;5052214;28;20071;-80
2023/01/08 05:56:10;;;;;;;27.48;15.68;;;3.20;99.90;;;;;;5056039;28;20119;-78
2023/01/08 05:58:37;;;;;;;27.23;15.38;;;3.20;99.90;;;;;;5073497;28;20111;-80
2023/01/08 06:01:12;;;;;;;24.20;15.00;;;3.20;99.90;;;;;;5053781;28;20027;-80
2023/01/08 06:03:38;;;;;;;25.73;16.00;;;3.20;99.90;;;;;;5048721;28;20044;-81
2023/01/08 06:06:06;;;;;;;28.52;15.93;;;3.20;99.90;;;;;;5072316;28;20114;-79
2023/01/08 06:08:33;;;;;;;29.77;17.15;;;3.20;99.90;;;;;;5072209;28;20103;-79
2023/01/08 06:11:01;;;;;;;27.95;16.00;;;3.20;99.90;;;;;;5072073;28;20511;-79
2023/01/08 06:13:28;;;;;;;30.58;16.00;;;3.20;99.90;;;;;;5068259;28;20112;-80
2023/01/08 06:15:54;;;;;;;28.65;16.58;;;3.20;99.90;;;;;;5070128;28;20488;-77
2023/01/08 06:18:20;;;;;;;28.55;15.95;;;3.10;99.90;;;;;;5061245;28;20032;-78
2023/01/08 06:20:46;;;;;;;26.80;15.90;;;3.10;99.90;;;;;;5054513;28;20052;-79
2023/01/08 06:23:12;;;;;;;29.42;16.38;;;3.10;99.90;;;;;;5038146;28;20028;-79
2023/01/08 06:25:38;;;;;;;30.92;16.40;;;3.10;99.90;;;;;;5060269;28;20039;-79
2023/01/08 06:28:05;;;;;;;26.83;15.27;;;3.10;99.90;;;;;;5067441;28;20408;-79
2023/01/08 06:30:31;;;;;;;28.75;16.20;;;3.00;99.90;;;;;;5035848;28;20389;-79
2023/01/08 06:32:57;;;;;;;30.13;16.17;;;3.00;99.90;;;;;;5032645;28;20032;-80
2023/01/08 06:35:24;;;;;;;29.10;16.38;;;2.90;99.90;;;;;;5070709;28;20096;-79
2023/01/08 06:37:50;;;;;;;30.55;16.30;;;2.90;99.90;;;;;;5066872;28;20032;-80
2023/01/08 06:40:17;;;;;;;31.25;16.25;;;3.00;99.90;;;;;;5071453;28;20020;-80
2023/01/08 06:42:43;;;;;;;29.85;16.98;;;2.90;99.90;;;;;;5051794;28;20032;-80
2023/01/08 06:45:10;;;;;;;28.35;16.70;;;3.00;99.90;;;;;;5066281;28;20036;-80
2023/01/08 06:47:35;;;;;;;31.58;17.15;;;2.90;99.90;;;;;;5053992;28;20438;-80
2023/01/08 06:50:01;;;;;;;29.95;16.50;;;3.00;99.90;;;;;;5042010;28;20036;-79
2023/01/08 06:52:27;;;;;;;30.50;16.33;;;3.00;99.90;;;;;;5022712;28;20032;-79
2023/01/08 06:54:53;;;;;;;30.85;17.02;;;2.90;99.90;;;;;;5051263;28;20028;-79
2023/01/08 06:57:19;;;;;;;34.15;17.08;;;2.90;99.90;;;;;;5057379;28;20039;-80
2023/01/08 06:59:45;;;;;;;29.98;17.05;;;3.00;99.90;;;;;;5070560;28;20032;-79
2023/01/08 07:02:16;;;;;;;34.58;17.70;;;3.00;99.90;;;;;;5052492;28;20488;-79
2023/01/08 07:04:42;;;;;;;33.67;18.02;;;2.90;99.90;;;;;;5070931;28;20055;-79
2023/01/08 07:07:12;;;;;;;33.58;17.92;;;2.90;99.90;;;;;;5074994;28;20021;-79
2023/01/08 07:09:38;;;;;;;27.17;16.63;;;3.00;99.90;;;;;;5074938;28;20033;-79
2023/01/08 07:12:04;;;;;;;31.50;17.48;;;3.00;99.90;;;;;;5075373;28;20639;-78
2023/01/08 07:14:30;;;;;;;31.90;17.52;;;3.00;99.90;;;;;;5055557;28;20155;-79
2023/01/08 07:16:56;;;;;;;31.13;17.10;;;3.00;99.90;;;;;;5056492;28;20111;-79
2023/01/08 07:19:22;;;;;;;29.80;16.85;;;3.00;99.90;;;;;;5045529;28;20033;-79
2023/01/08 07:21:48;;;;;;;32.05;18.40;;;3.10;99.90;;;;;;5044043;28;20044;-79
2023/01/08 07:24:13;;;;;;;30.50;17.63;;;3.10;99.90;;;;;;5069497;28;20033;-79
2023/01/08 07:26:40;;;;;;;31.90;16.70;;;3.20;99.90;;;;;;5062487;28;20062;-79
2023/01/08 07:29:06;;;;;;;31.48;17.67;;;3.20;99.90;;;;;;5057833;28;20037;-79
2023/01/08 07:31:32;;;;;;;31.10;17.92;;;3.30;99.90;;;;;;5075042;28;20036;-79
2023/01/08 07:33:58;;;;;;;33.38;18.40;;;3.30;99.90;;;;;;5054191;28;20123;-79
2023/01/08 07:36:24;;;;;;;33.03;16.95;;;3.30;99.90;;;;;;5074168;28;20043;-79
2023/01/08 07:38:50;;;;;;;31.35;17.67;;;3.30;99.90;;;;;;5074623;28;20515;-79
2023/01/08 07:41:17;;;;;;;31.38;17.33;;;3.30;99.90;;;;;;5069001;28;20029;-79
2023/01/08 07:43:43;;;;;;;32.88;17.67;;;3.30;99.90;;;;;;5070647;28;20329;-79
2023/01/08 07:46:09;;;;;;;31.08;16.23;;;3.30;99.90;;;;;;5040009;28;20076;-80
2023/01/08 07:48:35;;;;;;;30.48;18.17;;;3.40;99.90;;;;;;5070733;28;20111;-80
2023/01/08 07:51:02;;;;;;;32.28;17.60;;;3.40;99.90;;;;;;5048207;28;20103;-79
2023/01/08 07:53:29;;;;;;;30.42;17.40;;;3.40;99.90;;;;;;5054143;28;20038;-79
2023/01/08 07:55:59;;;;;;;33.22;16.50;;;3.40;99.90;;;;;;5040309;28;20404;-79
2023/01/08 07:58:26;;;;;;;28.58;15.52;;;3.40;99.90;;;;;;5027197;28;20075;-79
2023/01/08 08:00:51;;;;;;;29.63;16.77;;;3.40;99.90;;;;;;5072814;28;20032;-79
2023/01/08 08:03:17;;;;;;;29.88;17.02;;;3.40;99.90;;;;;;5055953;28;20073;-79
2023/01/08 08:05:43;;;;;;;31.38;17.38;;;3.40;99.90;;;;;;5077119;28;20033;-79
2023/01/08 08:08:11;;;;;;;28.80;15.98;;;3.50;99.90;;;;;;5026864;28;20032;-80
2023/01/08 08:10:39;;;;;;;31.23;16.65;;;3.50;99.90;;;;;;5081195;28;20091;-78
2023/01/08 08:13:05;;;;;;;28.45;16.60;;;3.50;99.90;;;;;;5051387;28;20063;-79
2023/01/08 08:15:32;;;;;;;28.58;15.93;;;3.50;99.90;;;;;;5054638;28;20051;-78
2023/01/08 08:17:58;;;;;;;28.50;16.17;;;3.50;99.90;;;;;;5074695;28;20024;-80
2023/01/08 08:20:25;;;;;;;28.10;15.70;;;3.60;99.90;;;;;;5074285;28;20040;-81
2023/01/08 08:22:50;;;;;;;27.60;15.40;;;3.60;99.90;;;;;;5042667;28;20420;-79
2023/01/08 08:25:17;;;;;;;28.33;16.75;;;3.70;99.90;;;;;;5036742;28;20041;-80
2023/01/08 08:27:43;;;;;;;27.77;15.98;;;3.70;99.90;;;;;;5073979;28;20024;-78
2023/01/08 08:30:11;;;;;;;31.98;18.08;;;3.80;99.90;;;;;;5056391;28;20032;-79
2023/01/08 08:32:37;;;;;;;34.88;19.58;;;3.80;99.90;;;;;;5033991;28;20070;-79
2023/01/08 08:35:04;;;;;;;30.02;17.55;;;3.80;99.90;;;;;;5056438;28;20035;-80
2023/01/08 08:37:30;;;;;;;32.10;17.58;;;3.90;99.90;;;;;;5026079;28;20040;-80
2023/01/08 08:39:56;;;;;;;29.27;16.73;;;3.90;99.90;;;;;;5050861;28;20040;-79
2023/01/08 08:42:21;;;;;;;30.73;17.00;;;3.90;99.90;;;;;;5059424;28;20029;-79
2023/01/08 08:44:47;;;;;;;26.90;15.93;;;3.90;99.90;;;;;;5072254;28;20079;-79
2023/01/08 08:47:13;;;;;;;27.30;15.60;;;4.00;99.90;;;;;;5019581;28;20041;-78
2023/01/08 08:49:39;;;;;;;29.20;15.57;;;4.00;99.90;;;;;;5036376;28;20033;-80
2023/01/08 08:52:05;;;;;;;26.05;15.70;;;4.00;99.90;;;;;;5053265;28;20031;-77
2023/01/08 08:54:31;;;;;;;24.63;14.65;;;4.10;99.90;;;;;;5076924;28;20401;-78
2023/01/08 08:56:57;;;;;;;27.55;15.65;;;4.20;99.90;;;;;;5040504;28;20040;-79
2023/01/08 08:59:23;;;;;;;29.25;15.45;;;4.20;99.90;;;;;;5037236;28;20040;-79
2023/01/08 09:01:49;;;;;;;26.02;15.68;;;4.20;99.90;;;;;;5067981;28;20037;-79
2023/01/08 09:04:15;;;;;;;25.70;14.95;;;4.20;99.90;;;;;;5051081;28;20031;-78
2023/01/08 09:06:41;;;;;;;25.25;15.02;;;4.30;99.90;;;;;;5052390;28;20511;-79
2023/01/08 09:09:07;;;;;;;23.38;13.35;;;4.30;99.90;;;;;;5052503;28;20114;-79
2023/01/08 09:11:33;;;;;;;22.73;13.60;;;4.40;99.90;;;;;;5036614;28;20481;-79
2023/01/08 09:13:59;;;;;;;22.42;13.73;;;4.40;99.90;;;;;;5051971;28;20085;-79
2023/01/08 09:16:25;;;;;;;21.45;12.93;;;4.40;99.90;;;;;;5053832;28;20025;-78
2023/01/08 09:18:51;;;;;;;19.85;12.27;;;4.40;99.90;;;;;;5071968;28;20078;-79
2023/01/08 09:21:17;;;;;;;18.92;11.38;;;4.40;99.90;;;;;;5055352;28;20052;-79
2023/01/08 09:23:43;;;;;;;16.33;11.02;;;4.50;99.90;;;;;;5068776;28;20052;-79
2023/01/08 09:26:08;;;;;;;15.75;10.48;;;4.60;99.90;;;;;;5071331;28;20032;-79
2023/01/08 09:28:34;;;;;;;16.15;10.85;;;4.60;99.90;;;;;;5067307;28;20111;-79
2023/01/08 09:31:04;;;;;;;16.98;10.95;;;4.70;99.90;;;;;;5071014;28;20051;-80
2023/01/08 09:33:30;;;;;;;14.77;10.00;;;4.80;99.90;;;;;;5067094;28;20261;-79
2023/01/08 09:35:56;;;;;;;13.43;8.65;;;4.80;99.90;;;;;;5048081;28;20082;-79
2023/01/08 09:38:22;;;;;;;15.15;10.13;;;4.90;99.90;;;;;;5032951;28;20074;-78
2023/01/08 09:40:55;;;;;;;14.88;9.93;;;5.00;99.90;;;;;;5071022;28;20028;-79
2023/01/08 09:43:24;;;;;;;15.63;10.00;;;5.00;99.90;;;;;;5067344;28;20056;-80
2023/01/08 09:45:54;;;;;;;14.50;8.90;;;5.10;99.90;;;;;;5058374;28;20049;-78
2023/01/08 09:48:25;;;;;;;14.23;9.55;;;5.20;99.90;;;;;;5067561;28;20540;-79
2023/01/08 09:50:51;;;;;;;14.02;9.25;;;5.20;99.90;;;;;;5052026;28;20040;-78
2023/01/08 09:53:17;;;;;;;11.95;8.45;;;5.30;99.90;;;;;;5068576;28;20032;-79
2023/01/08 09:55:45;;;;;;;12.32;8.77;;;5.30;99.90;;;;;;5069922;28;20024;-78
2023/01/08 09:58:49;;;;;;;14.63;9.45;;;5.30;99.90;;;;;;5070215;28;20443;-79
2023/01/08 10:01:19;;;;;;;12.10;8.90;;;5.30;99.90;;;;;;5068259;28;20020;-78
2023/01/08 10:03:49;;;;;;;12.82;8.93;;;5.40;99.90;;;;;;5066340;28;20047;-78
2023/01/08 10:06:16;;;;;;;13.25;9.25;;;5.40;99.90;;;;;;5070084;28;20036;-78
2023/01/08 10:08:43;;;;;;;13.50;9.18;;;5.50;99.90;;;;;;5072787;28;20669;-78
2023/01/08 10:11:11;;;;;;;12.90;9.25;;;5.60;99.90;;;;;;5072421;28;20090;-78
2023/01/08 10:13:39;;;;;;;12.45;9.07;;;5.70;99.90;;;;;;5067530;28;20277;-78
2023/01/08 10:16:09;;;;;;;12.02;8.15;;;5.80;99.90;;;;;;5047504;28;20413;-78
2023/01/08 10:18:36;;;;;;;13.38;8.55;;;5.90;99.90;;;;;;5051178;28;20056;-79
2023/01/08 10:21:02;;;;;;;13.95;9.35;;;6.00;99.90;;;;;;5067808;28;20029;-78
2023/01/08 10:23:28;;;;;;;14.32;10.00;;;6.10;99.90;;;;;;5029623;28;20040;-76
2023/01/08 10:25:58;;;;;;;15.32;10.65;;;6.20;99.90;;;;;;5071073;28;20032;-79
2023/01/08 10:28:28;;;;;;;15.65;10.55;;;6.20;99.90;;;;;;5071604;28;20041;-79
2023/01/08 10:31:23;;;;;;;16.60;10.77;;;6.20;99.90;;;;;;5070289;28;20029;-79
2023/01/08 10:33:49;;;;;;;15.60;11.35;;;6.20;99.90;;;;;;5056474;28;20146;-78
2023/01/08 10:36:23;;;;;;;19.35;13.45;;;6.10;99.90;;;;;;5038396;28;20513;-80
2023/01/08 10:38:57;;;;;;;17.52;11.95;;;6.10;99.90;;;;;;5070848;28;20047;-77
2023/01/08 10:41:25;;;;;;;;;;;6.00;99.90;;;;;;5053312;28;20673;-77
2023/01/08 10:43:58;;;;;;;17.73;12.32;;;6.00;99.90;;;;;;5050711;28;19981;-78
2023/01/08 10:46:40;;;;;;;15.85;10.68;;;6.00;99.90;;;;;;5052640;28;20092;-79
2023/01/08 10:49:16;;;;;;;14.52;10.43;;;6.00;99.90;;;;;;5052820;28;20037;-79
2023/01/08 10:51:52;;;;;;;16.00;10.93;;;6.00;99.90;;;;;;5072545;28;20032;-78
2023/01/08 10:54:35;;;;;;;14.20;10.02;;;6.10;99.90;;;;;;5051535;28;20089;-79
2023/01/08 10:57:01;;;;;;;11.45;8.05;;;6.00;99.90;;;;;;5038524;28;20119;-79
2023/01/08 10:59:28;;;;;;;13.98;9.27;;;6.00;99.90;;;;;;5069204;28;20043;-79
2023/01/08 11:01:56;;;;;;;13.90;9.80;;;6.00;99.90;;;;;;5036301;28;20040;-79
2023/01/08 11:04:34;;;;;;;13.38;8.77;;;6.00;99.90;;;;;;5066608;28;20033;-79
2023/01/08 11:07:03;;;;;;;6.65;5.15;;;6.10;99.90;;;;;;5049528;28;20044;-80
2023/01/08 11:09:33;;;;;;;8.85;5.68;;;6.10;99.90;;;;;;5069297;28;20139;-79
2023/01/08 11:11:59;;;;;;;5.65;4.70;;;6.10;99.90;;;;;;5069453;28;20040;-80
2023/01/08 11:14:33;;;;;;;6.55;4.05;;;6.20;99.90;;;;;;5040568;28;20882;-80
2023/01/08 11:17:07;;;;;;;6.03;3.83;;;6.20;99.90;;;;;;5070353;28;20032;-80
2023/01/08 11:19:33;;;;;;;4.80;3.70;;;6.30;99.90;;;;;;5050929;28;20037;-79
2023/01/08 11:22:07;;;;;;;4.72;3.72;;;6.40;99.90;;;;;;5076961;28;20029;-79
2023/01/08 11:24:37;;;;;;;3.90;2.97;;;6.40;99.90;;;;;;5032909;28;20029;-80
2023/01/08 11:27:21;;;;;;;3.95;3.03;;;6.50;99.90;;;;;;5068924;28;20049;-79
2023/01/08 11:29:52;;;;;;;3.92;2.95;;;6.50;99.90;;;;;;5053947;28;20024;-79
2023/01/08 11:32:43;;;;;;;4.68;3.90;;;6.60;99.90;;;;;;5048777;28;20092;-79
2023/01/08 11:35:14;;;;;;;4.15;2.70;;;6.70;99.90;;;;;;5056146;28;20071;-80
2023/01/08 11:37:51;;;;;;;3.83;2.97;;;6.80;99.90;;;;;;5065596;28;20025;-78
2023/01/08 11:40:24;;;;;;;4.43;3.15;;;6.80;99.90;;;;;;5070842;28;20028;-80
2023/01/08 11:43:15;;;;;;;3.42;2.75;;;6.80;99.90;;;;;;5071213;28;20104;-77
2023/01/08 11:46:35;;;;;;;6.25;3.33;;;6.80;99.90;;;;;;5071255;28;20473;-78
2023/01/08 11:49:15;;;;;;;5.13;2.90;;;6.80;99.90;;;;;;4990844;28;20070;-78
2023/01/08 11:51:55;;;;;;;3.97;2.88;;;6.80;99.90;;;;;;5056692;28;20059;-78
2023/01/08 11:54:26;;;;;;;4.88;2.97;;;6.90;99.90;;;;;;5047830;28;20121;-78
2023/01/08 11:56:52;;;;;;;3.85;3.55;;;6.90;99.90;;;;;;5079914;28;20039;-79
2023/01/08 11:59:27;;;;;;;4.32;3.15;;;6.90;99.90;;;;;;5075755;28;20036;-78
2023/01/08 12:02:23;;;;;;;4.07;3.25;;;6.90;99.90;;;;;;5057669;28;20028;-79
2023/01/08 12:05:28;;;;;;;4.97;3.58;;;6.90;99.90;;;;;;5071055;28;20028;-80
2023/01/08 12:08:34;;;;;;;5.53;3.08;;;6.90;99.90;;;;;;5074025;28;20033;-80
2023/01/08 12:11:16;;;;;;;3.75;3.10;;;6.80;99.90;;;;;;5064831;28;20043;-79
2023/01/08 12:13:57;;;;;;;4.18;3.13;;;6.80;99.90;;;;;;5059727;28;20040;-80
2023/01/08 12:17:01;;;;;;;4.65;2.80;;;6.80;99.90;;;;;;5070054;28;20025;-79
2023/01/08 12:19:49;;;;;;;3.72;3.00;;;6.80;99.90;;;;;;5071066;28;20036;-78
2023/01/08 12:22:20;;;;;;;4.40;3.30;;;6.80;99.90;;;;;;5065982;28;20024;-80
2023/01/08 12:25:04;;;;;;;4.43;3.35;;;6.70;99.90;;;;;;5052059;28;20056;-80
2023/01/08 12:27:51;;;;;;;4.15;3.20;;;6.70;99.90;;;;;;5072257;28;20037;-78
2023/01/08 12:30:50;;;;;;;3.50;3.05;;;6.70;99.90;;;;;;5069839;28;20045;-79
2023/01/08 12:33:32;;;;;;;5.50;3.20;;;6.70;99.90;;;;;;5015442;28;20120;-78
2023/01/08 12:36:02;;;;;;;5.25;3.53;;;6.60;99.90;;;;;;5069492;28;20032;-79
2023/01/08 12:38:33;;;;;;;3.53;3.05;;;6.60;99.90;;;;;;5050572;28;20558;-79
2023/01/08 12:41:07;;;;;;;4.32;3.08;;;6.60;99.90;;;;;;5047259;28;20029;-79
2023/01/08 12:44:03;;;;;;;6.88;3.72;;;6.60;99.90;;;;;;5071566;28;20088;-78
2023/01/08 12:46:33;;;;;;;3.55;3.22;;;6.60;99.90;;;;;;5074096;28;20068;-79
2023/01/08 12:49:01;;;;;;;3.42;3.13;;;6.60;99.90;;;;;;5074112;28;20032;-79
2023/01/08 12:51:47;;;;;;;4.70;3.42;;;6.70;99.90;;;;;;5067625;28;20113;-79
2023/01/08 12:54:48;;;;;;;4.65;3.03;;;6.70;99.90;;;;;;5053948;28;20052;-79
2023/01/08 12:57:27;;;;;;;4.70;3.40;;;6.70;99.90;;;;;;5069949;28;20036;-79